sensor_id;sensor_type;location;lat;lon;timestamp;temperature;humidity
1896;DHT22;1455;51.440;7.308;2022-12-18T00:42:30;-1.40;99.90
1896;DHT22;1455;51.440;7.308;2022-12-18T00:45:33;-1.40;99.90
1896;DHT22;1455;51.440;7.308;2022-12-18T00:48:22;-1.40;99.90
1896;DHT22;1455;51.440;7.308;2022-12-18T00:51:08;-1.20;99.90
1896;DHT22;1455;51.440;7.308;2022-12-18T00:53:54;-1.30;99.90
1896;DHT22;1455;51.440;7.308;2022-12-18T00:56:43;-1.10;99.90
1896;DHT22;1455;51.440;7.308;2022-12-18T00:59:32;-1.10;99.90
1896;DHT22;1455;51.440;7.308;2022-12-18T01:02:25;-0.80;99.90
1896;DHT22;1455;51.440;7.308;2022-12-18T01:05:15;-1.10;99.90
1896;DHT22;1455;51.440;7.308;2022-12-18T01:08:13;-0.90;99.90
1896;DHT22;1455;51.440;7.308;2022-12-18T01:11:07;-0.70;99.90
1896;DHT22;1455;51.440;7.308;2022-12-18T01:13:55;-0.70;99.90
1896;DHT22;1455;51.440;7.308;2022-12-18T01:16:43;-0.90;99.90
1896;DHT22;1455;51.440;7.308;2022-12-18T01:19:34;-0.90;99.90
1896;DHT22;1455;51.440;7.308;2022-12-18T01:22:24;-0.90;99.90
1896;DHT22;1455;51.440;7.308;2022-12-18T01:25:10;-0.90;99.90
1896;DHT22;1455;51.440;7.308;2022-12-18T01:27:59;-1.00;99.90
1896;DHT22;1455;51.440;7.308;2022-12-18T01:30:48;-0.90;99.90
1896;DHT22;1455;51.440;7.308;2022-12-18T01:33:37;-0.80;99.90
1896;DHT22;1455;51.440;7.308;2022-12-18T01:36:26;-0.90;99.90
1896;DHT22;1455;51.440;7.308;2022-12-18T01:39:13;-1.00;99.90
1896;DHT22;1455;51.440;7.308;2022-12-18T01:41:59;-1.10;99.90
1896;DHT22;1455;51.440;7.308;2022-12-18T01:44:55;-1.20;99.90
1896;DHT22;1455;51.440;7.308;2022-12-18T01:47:43;-1.30;99.90
1896;DHT22;1455;51.440;7.308;2022-12-18T01:50:32;-1.30;99.90
1896;DHT22;1455;51.440;7.308;2022-12-18T01:53:20;-1.30;99.90
1896;DHT22;1455;51.440;7.308;2022-12-18T01:56:08;-1.20;99.90
1896;DHT22;1455;51.440;7.308;2022-12-18T01:59:00;-1.20;99.90
1896;DHT22;1455;51.440;7.308;2022-12-18T02:01:50;-1.20;99.90
1896;DHT22;1455;51.440;7.308;2022-12-18T02:04:41;-1.00;99.90
1896;DHT22;1455;51.440;7.308;2022-12-18T02:07:34;-0.90;99.90
1896;DHT22;1455;51.440;7.308;2022-12-18T02:10:26;-1.00;99.90
1896;DHT22;1455;51.440;7.308;2022-12-18T02:13:15;-1.30;99.90
1896;DHT22;1455;51.440;7.308;2022-12-18T02:16:10;-0.90;99.90
1896;DHT22;1455;51.440;7.308;2022-12-18T02:19:06;-1.20;99.90
1896;DHT22;1455;51.440;7.308;2022-12-18T02:22:00;-1.20;99.90
1896;DHT22;1455;51.440;7.308;2022-12-18T02:24:58;-1.10;99.90
1896;DHT22;1455;51.440;7.308;2022-12-18T02:27:58;-1.10;99.90
1896;DHT22;1455;51.440;7.308;2022-12-18T02:30:47;-1.10;99.90
1896;DHT22;1455;51.440;7.308;2022-12-18T02:33:33;-1.20;99.90
1896;DHT22;1455;51.440;7.308;2022-12-18T02:36:20;-1.20;99.90
1896;DHT22;1455;51.440;7.308;2022-12-18T02:39:07;-1.30;99.90
1896;DHT22;1455;51.440;7.308;2022-12-18T02:41:55;-1.30;99.90
1896;DHT22;1455;51.440;7.308;2022-12-18T02:44:45;-1.30;99.90
1896;DHT22;1455;51.440;7.308;2022-12-18T02:47:32;-1.30;99.90
1896;DHT22;1455;51.440;7.308;2022-12-18T02:50:22;-1.20;99.90
1896;DHT22;1455;51.440;7.308;2022-12-18T02:53:15;-1.20;99.90
1896;DHT22;1455;51.440;7.308;2022-12-18T02:56:13;-0.90;99.90
1896;DHT22;1455;51.440;7.308;2022-12-18T02:59:04;-1.30;99.90
1896;DHT22;1455;51.440;7.308;2022-12-18T03:01:57;-1.40;99.90
1896;DHT22;1455;51.440;7.308;2022-12-18T03:04:45;-1.50;99.90
1896;DHT22;1455;51.440;7.308;2022-12-18T03:07:36;-1.50;99.90
1896;DHT22;1455;51.440;7.308;2022-12-18T03:10:27;-1.60;99.90
1896;DHT22;1455;51.440;7.308;2022-12-18T03:13:16;-1.50;99.90
1896;DHT22;1455;51.440;7.308;2022-12-18T03:16:16;-1.60;99.90
1896;DHT22;1455;51.440;7.308;2022-12-18T03:19:08;-1.70;99.90
1896;DHT22;1455;51.440;7.308;2022-12-18T03:21:57;-1.50;99.90
1896;DHT22;1455;51.440;7.308;2022-12-18T03:24:47;-1.70;99.90
1896;DHT22;1455;51.440;7.308;2022-12-18T03:27:34;-1.60;99.90
1896;DHT22;1455;51.440;7.308;2022-12-18T03:30:21;-1.80;99.90
1896;DHT22;1455;51.440;7.308;2022-12-18T03:33:13;-2.00;99.90
1896;DHT22;1455;51.440;7.308;2022-12-18T03:36:03;-2.00;99.90
1896;DHT22;1455;51.440;7.308;2022-12-18T03:38:49;-1.90;99.90
1896;DHT22;1455;51.440;7.308;2022-12-18T03:41:43;-2.00;99.90
1896;DHT22;1455;51.440;7.308;2022-12-18T03:44:33;-2.00;99.90
1896;DHT22;1455;51.440;7.308;2022-12-18T03:47:29;-2.00;99.90
1896;DHT22;1455;51.440;7.308;2022-12-18T03:50:20;-2.00;99.90
1896;DHT22;1455;51.440;7.308;2022-12-18T03:53:17;-1.90;99.90
1896;DHT22;1455;51.440;7.308;2022-12-18T03:56:05;-2.00;99.90
1896;DHT22;1455;51.440;7.308;2022-12-18T03:58:52;-2.00;99.90
1896;DHT22;1455;51.440;7.308;2022-12-18T04:01:41;-2.10;99.90
1896;DHT22;1455;51.440;7.308;2022-12-18T04:04:30;-2.00;99.90
1896;DHT22;1455;51.440;7.308;2022-12-18T04:07:18;-2.00;99.90
1896;DHT22;1455;51.440;7.308;2022-12-18T04:10:10;-1.90;99.90
1896;DHT22;1455;51.440;7.308;2022-12-18T04:13:04;-2.00;99.90
1896;DHT22;1455;51.440;7.308;2022-12-18T04:15:53;-2.10;99.90
1896;DHT22;1455;51.440;7.308;2022-12-18T04:18:39;-2.10;99.90
1896;DHT22;1455;51.440;7.308;2022-12-18T04:21:24;-2.10;99.90
1896;DHT22;1455;51.440;7.308;2022-12-18T04:24:22;-2.20;99.90
1896;DHT22;1455;51.440;7.308;2022-12-18T04:27:11;-2.20;99.90
1896;DHT22;1455;51.440;7.308;2022-12-18T04:30:05;-2.00;99.90
1896;DHT22;1455;51.440;7.308;2022-12-18T04:32:52;-2.00;99.90
1896;DHT22;1455;51.440;7.308;2022-12-18T04:35:38;-2.10;99.90
1896;DHT22;1455;51.440;7.308;2022-12-18T04:38:24;-2.10;99.90
1896;DHT22;1455;51.440;7.308;2022-12-18T04:41:10;-2.10;99.90
1896;DHT22;1455;51.440;7.308;2022-12-18T04:43:58;-2.10;99.90
1896;DHT22;1455;51.440;7.308;2022-12-18T04:46:44;-2.00;99.90
1896;DHT22;1455;51.440;7.308;2022-12-18T04:49:34;-2.00;99.90
1896;DHT22;1455;51.440;7.308;2022-12-18T04:52:22;-1.80;99.90
1896;DHT22;1455;51.440;7.308;2022-12-18T04:55:18;-1.80;99.90
1896;DHT22;1455;51.440;7.308;2022-12-18T04:58:09;-1.80;99.90
1896;DHT22;1455;51.440;7.308;2022-12-18T05:00:58;-2.00;99.90
1896;DHT22;1455;51.440;7.308;2022-12-18T05:03:50;-2.20;99.90
1896;DHT22;1455;51.440;7.308;2022-12-18T05:06:40;-2.20;99.90
1896;DHT22;1455;51.440;7.308;2022-12-18T05:09:36;-1.90;99.90
1896;DHT22;1455;51.440;7.308;2022-12-18T05:12:22;-1.80;99.90
1896;DHT22;1455;51.440;7.308;2022-12-18T05:15:26;-1.80;99.90
1896;DHT22;1455;51.440;7.308;2022-12-18T05:18:31;-1.80;99.90
1896;DHT22;1455;51.440;7.308;2022-12-18T05:21:17;-2.00;99.90
1896;DHT22;1455;51.440;7.308;2022-12-18T05:24:05;-2.10;99.90
1896;DHT22;1455;51.440;7.308;2022-12-18T05:26:57;-2.10;99.90
1896;DHT22;1455;51.440;7.308;2022-12-18T05:29:44;-2.20;99.90
1896;DHT22;1455;51.440;7.308;2022-12-18T05:32:35;-2.20;99.90
1896;DHT22;1455;51.440;7.308;2022-12-18T05:35:23;-2.30;99.90
1896;DHT22;1455;51.440;7.308;2022-12-18T05:38:09;-2.20;99.90
1896;DHT22;1455;51.440;7.308;2022-12-18T05:40:58;-2.30;99.90
1896;DHT22;1455;51.440;7.308;2022-12-18T05:43:51;-2.30;99.90
1896;DHT22;1455;51.440;7.308;2022-12-18T05:46:38;-2.30;99.90
1896;DHT22;1455;51.440;7.308;2022-12-18T05:49:23;-2.40;99.90
1896;DHT22;1455;51.440;7.308;2022-12-18T05:52:19;-2.40;99.90
1896;DHT22;1455;51.440;7.308;2022-12-18T05:55:09;-2.30;99.90
1896;DHT22;1455;51.440;7.308;2022-12-18T05:57:56;-2.40;99.90
1896;DHT22;1455;51.440;7.308;2022-12-18T06:00:44;-2.20;99.90
1896;DHT22;1455;51.440;7.308;2022-12-18T06:03:34;-2.30;99.90
1896;DHT22;1455;51.440;7.308;2022-12-18T06:06:28;-2.30;99.90
1896;DHT22;1455;51.440;7.308;2022-12-18T06:09:16;-2.40;99.90
1896;DHT22;1455;51.440;7.308;2022-12-18T06:12:01;-2.40;99.90
1896;DHT22;1455;51.440;7.308;2022-12-18T06:14:48;-2.40;99.90
1896;DHT22;1455;51.440;7.308;2022-12-18T06:17:35;-2.40;99.90
1896;DHT22;1455;51.440;7.308;2022-12-18T06:20:21;-2.20;99.90
1896;DHT22;1455;51.440;7.308;2022-12-18T06:23:09;-2.40;99.90
1896;DHT22;1455;51.440;7.308;2022-12-18T06:25:57;-2.40;99.90
1896;DHT22;1455;51.440;7.308;2022-12-18T06:28:43;-2.30;99.90
1896;DHT22;1455;51.440;7.308;2022-12-18T06:31:29;-2.20;99.90
1896;DHT22;1455;51.440;7.308;2022-12-18T06:34:17;-2.20;99.90
1896;DHT22;1455;51.440;7.308;2022-12-18T06:37:03;-2.20;99.90
1896;DHT22;1455;51.440;7.308;2022-12-18T06:39:51;-2.20;99.90
1896;DHT22;1455;51.440;7.308;2022-12-18T06:42:50;-2.30;99.90
1896;DHT22;1455;51.440;7.308;2022-12-18T06:45:36;-2.30;99.90
1896;DHT22;1455;51.440;7.308;2022-12-18T06:48:27;-2.30;99.90
1896;DHT22;1455;51.440;7.308;2022-12-18T06:51:15;-2.40;99.90
1896;DHT22;1455;51.440;7.308;2022-12-18T06:54:05;-2.40;99.90
1896;DHT22;1455;51.440;7.308;2022-12-18T06:56:51;-2.20;99.90
1896;DHT22;1455;51.440;7.308;2022-12-18T06:59:48;-2.40;99.90
1896;DHT22;1455;51.440;7.308;2022-12-18T07:02:37;-2.70;99.90
1896;DHT22;1455;51.440;7.308;2022-12-18T07:05:31;-2.80;99.90
1896;DHT22;1455;51.440;7.308;2022-12-18T07:08:19;-2.90;99.90
1896;DHT22;1455;51.440;7.308;2022-12-18T07:11:10;-2.90;99.90
1896;DHT22;1455;51.440;7.308;2022-12-18T07:13:55;-2.90;99.90
1896;DHT22;1455;51.440;7.308;2022-12-18T07:16:43;-3.00;99.90
1896;DHT22;1455;51.440;7.308;2022-12-18T07:19:29;-3.10;99.90
1896;DHT22;1455;51.440;7.308;2022-12-18T07:22:15;-3.10;99.90
1896;DHT22;1455;51.440;7.308;2022-12-18T07:25:00;-3.30;99.90
1896;DHT22;1455;51.440;7.308;2022-12-18T07:27:46;-3.20;99.90
1896;DHT22;1455;51.440;7.308;2022-12-18T07:30:32;-3.20;99.90
1896;DHT22;1455;51.440;7.308;2022-12-18T07:33:19;-2.90;99.90
1896;DHT22;1455;51.440;7.308;2022-12-18T07:36:06;-3.00;99.90
1896;DHT22;1455;51.440;7.308;2022-12-18T07:38:52;-3.10;99.90
1896;DHT22;1455;51.440;7.308;2022-12-18T07:41:38;-3.20;99.90
1896;DHT22;1455;51.440;7.308;2022-12-18T07:44:26;-3.20;99.90
1896;DHT22;1455;51.440;7.308;2022-12-18T07:47:12;-3.30;99.90
1896;DHT22;1455;51.440;7.308;2022-12-18T07:50:01;-3.30;99.90
1896;DHT22;1455;51.440;7.308;2022-12-18T07:52:47;-3.40;99.90
1896;DHT22;1455;51.440;7.308;2022-12-18T07:55:33;-3.40;99.90
1896;DHT22;1455;51.440;7.308;2022-12-18T07:58:20;-3.30;99.90
1896;DHT22;1455;51.440;7.308;2022-12-18T08:01:07;-3.20;99.90
1896;DHT22;1455;51.440;7.308;2022-12-18T08:03:54;-3.00;99.90
1896;DHT22;1455;51.440;7.308;2022-12-18T08:06:41;-2.70;99.90
1896;DHT22;1455;51.440;7.308;2022-12-18T08:09:31;-2.50;99.90
1896;DHT22;1455;51.440;7.308;2022-12-18T08:12:17;-2.10;99.90
1896;DHT22;1455;51.440;7.308;2022-12-18T08:15:05;-2.10;99.90
1896;DHT22;1455;51.440;7.308;2022-12-18T08:17:51;-2.00;99.90
1896;DHT22;1455;51.440;7.308;2022-12-18T08:20:40;-1.90;99.90
1896;DHT22;1455;51.440;7.308;2022-12-18T08:23:29;-1.70;99.90
1896;DHT22;1455;51.440;7.308;2022-12-18T08:26:15;-1.40;99.90
1896;DHT22;1455;51.440;7.308;2022-12-18T08:29:01;-1.50;99.90
1896;DHT22;1455;51.440;7.308;2022-12-18T08:31:51;-1.50;99.90
1896;DHT22;1455;51.440;7.308;2022-12-18T08:34:46;-1.50;99.90
1896;DHT22;1455;51.440;7.308;2022-12-18T08:37:33;-1.40;99.90
1896;DHT22;1455;51.440;7.308;2022-12-18T08:40:24;-1.30;99.90
1896;DHT22;1455;51.440;7.308;2022-12-18T08:43:19;-1.20;99.90
1896;DHT22;1455;51.440;7.308;2022-12-18T08:46:30;-1.00;99.90
1896;DHT22;1455;51.440;7.308;2022-12-18T08:49:23;-0.90;99.90
1896;DHT22;1455;51.440;7.308;2022-12-18T08:52:10;-0.80;99.90
1896;DHT22;1455;51.440;7.308;2022-12-18T08:54:56;-0.80;99.90
1896;DHT22;1455;51.440;7.308;2022-12-18T08:57:47;-0.70;99.90
1896;DHT22;1455;51.440;7.308;2022-12-18T09:00:36;-0.30;99.90
1896;DHT22;1455;51.440;7.308;2022-12-18T09:03:31;-0.30;99.90
1896;DHT22;1455;51.440;7.308;2022-12-18T09:06:27;-0.10;99.90
1896;DHT22;1455;51.440;7.308;2022-12-18T09:09:18;0.40;99.90
1896;DHT22;1455;51.440;7.308;2022-12-18T09:12:05;0.80;99.90
1896;DHT22;1455;51.440;7.308;2022-12-18T09:15:10;0.90;99.90
1896;DHT22;1455;51.440;7.308;2022-12-18T09:17:56;1.20;99.90
1896;DHT22;1455;51.440;7.308;2022-12-18T09:20:42;1.20;99.90
1896;DHT22;1455;51.440;7.308;2022-12-18T09:23:37;1.50;99.90
1896;DHT22;1455;51.440;7.308;2022-12-18T09:26:26;1.50;99.90
1896;DHT22;1455;51.440;7.308;2022-12-18T09:29:27;1.60;99.90
1896;DHT22;1455;51.440;7.308;2022-12-18T09:36:07;1.70;99.90
1896;DHT22;1455;51.440;7.308;2022-12-18T09:42:32;1.60;99.90
1896;DHT22;1455;51.440;7.308;2022-12-18T09:45:36;1.80;99.90
1896;DHT22;1455;51.440;7.308;2022-12-18T09:48:55;2.00;99.90
1896;DHT22;1455;51.440;7.308;2022-12-18T09:52:02;2.10;99.90
1896;DHT22;1455;51.440;7.308;2022-12-18T09:54:52;2.10;99.90
1896;DHT22;1455;51.440;7.308;2022-12-18T09:57:49;2.40;99.90
1896;DHT22;1455;51.440;7.308;2022-12-18T10:01:01;2.30;99.90
1896;DHT22;1455;51.440;7.308;2022-12-18T10:03:57;2.30;99.90
1896;DHT22;1455;51.440;7.308;2022-12-18T10:07:02;2.30;99.90
1896;DHT22;1455;51.440;7.308;2022-12-18T10:09:52;2.30;99.90
1896;DHT22;1455;51.440;7.308;2022-12-18T10:12:52;2.50;99.90
1896;DHT22;1455;51.440;7.308;2022-12-18T10:16:03;2.70;99.90
1896;DHT22;1455;51.440;7.308;2022-12-18T10:19:21;2.80;99.90
1896;DHT22;1455;51.440;7.308;2022-12-18T10:25:59;2.70;99.90
